<?xml version="1.0" encoding="UTF-8" standalone="no" ?>
<gpx xmlns="http://www.topografix.com/GPX/1/1" xmlns:xsi="http://www.w3.org/2001/XMLSchema-instance" xsi:schemaLocation="http://www.topografix.com/GPX/1/1 http://www.topografix.com/GPX/1/1/gpx.xsd" version="1.1" creator="VisuGPX - https://www.visugpx.com">
  <metadata>
    <name>#FONT/ Les Gorges du Houx et le rocher de la Combe</name>
    <desc><![CDATA[Du parking de la Croix de Franchard, partir vers le carrefour du Houx, le carrefour des oiseaux, le village des carriers pour rejoindre la Gorge aux Merisiers(RBD) rester sur le chemin (attention aux limites du Polygone) par la route de l'occident, prendre le Mont enflammé, le rocher de la Combe avec ses inscriptions et ses grottes pour revenir par les Petits Feuillard, peut être verrez vous le Mégaterium et quelques chênes rouges pour le retour sur le parking]]></desc>
  </metadata>
  <trk>
    <name><![CDATA[Houx, Combes Sud-17023915]]></name>
    <extensions>
      <line xmlns="http://www.topografix.com/GPX/gpx_style/0/2">
        <color>0000FF</color>
        <width>4</width>
      </line>
    </extensions>
    <trkseg>
      <trkpt lat="48.40851" lon="2.6391">
        <ele>138</ele>
        <time>2023-06-20T13:44:38Z</time>
      </trkpt>
      <trkpt lat="48.40741" lon="2.64024">
        <ele>136</ele>
        <time>2023-06-20T13:47:36Z</time>
      </trkpt>
      <trkpt lat="48.40688" lon="2.641">
        <ele>136</ele>
        <time>2023-06-20T13:49:14Z</time>
      </trkpt>
      <trkpt lat="48.40649" lon="2.64236">
        <ele>136</ele>
        <time>2023-06-20T13:51:25Z</time>
      </trkpt>
      <trkpt lat="48.40583" lon="2.64232">
        <ele>134</ele>
        <time>2023-06-20T13:52:53Z</time>
      </trkpt>
      <trkpt lat="48.4055" lon="2.64277">
        <ele>133</ele>
        <time>2023-06-20T13:53:53Z</time>
      </trkpt>
      <trkpt lat="48.40521" lon="2.64288">
        <ele>132</ele>
        <time>2023-06-20T13:54:33Z</time>
      </trkpt>
      <trkpt lat="48.40518" lon="2.64338">
        <ele>131</ele>
        <time>2023-06-20T13:55:17Z</time>
      </trkpt>
      <trkpt lat="48.40471" lon="2.64392">
        <ele>131</ele>
        <time>2023-06-20T13:56:36Z</time>
      </trkpt>
      <trkpt lat="48.40444" lon="2.64422">
        <ele>131</ele>
        <time>2023-06-20T13:57:21Z</time>
      </trkpt>
      <trkpt lat="48.40405" lon="2.64431">
        <ele>130</ele>
        <time>2023-06-20T13:58:13Z</time>
      </trkpt>
      <trkpt lat="48.40398" lon="2.64476">
        <ele>130</ele>
        <time>2023-06-20T13:58:54Z</time>
      </trkpt>
      <trkpt lat="48.40372" lon="2.6448">
        <ele>126</ele>
        <time>2023-06-20T13:59:29Z</time>
      </trkpt>
      <trkpt lat="48.40352" lon="2.64524">
        <ele>123</ele>
        <time>2023-06-20T14:00:16Z</time>
      </trkpt>
      <trkpt lat="48.40316" lon="2.64534">
        <ele>120</ele>
        <time>2023-06-20T14:01:05Z</time>
      </trkpt>
      <trkpt lat="48.40296" lon="2.64465">
        <ele>123</ele>
        <time>2023-06-20T14:02:12Z</time>
      </trkpt>
      <trkpt lat="48.4025" lon="2.64448">
        <ele>128</ele>
        <time>2023-06-20T14:03:15Z</time>
      </trkpt>
      <trkpt lat="48.40224" lon="2.64487">
        <ele>130</ele>
        <time>2023-06-20T14:04:04Z</time>
      </trkpt>
      <trkpt lat="48.4021" lon="2.64465">
        <ele>132</ele>
        <time>2023-06-20T14:04:31Z</time>
      </trkpt>
      <trkpt lat="48.40199" lon="2.64429">
        <ele>134</ele>
        <time>2023-06-20T14:05:06Z</time>
      </trkpt>
      <trkpt lat="48.40158" lon="2.64444">
        <ele>136</ele>
        <time>2023-06-20T14:06:02Z</time>
      </trkpt>
      <trkpt lat="48.40102" lon="2.64448">
        <ele>132</ele>
        <time>2023-06-20T14:07:17Z</time>
      </trkpt>
      <trkpt lat="48.40076" lon="2.64389">
        <ele>131</ele>
        <time>2023-06-20T14:08:20Z</time>
      </trkpt>
      <trkpt lat="48.40043" lon="2.64305">
        <ele>131</ele>
        <time>2023-06-20T14:09:47Z</time>
      </trkpt>
      <trkpt lat="48.40017" lon="2.64404">
        <ele>127</ele>
        <time>2023-06-20T14:11:21Z</time>
      </trkpt>
      <trkpt lat="48.39976" lon="2.6443">
        <ele>121</ele>
        <time>2023-06-20T14:12:20Z</time>
      </trkpt>
      <trkpt lat="48.39937" lon="2.64413">
        <ele>116</ele>
        <time>2023-06-20T14:13:14Z</time>
      </trkpt>
      <trkpt lat="48.3988" lon="2.64404">
        <ele>109</ele>
        <time>2023-06-20T14:14:31Z</time>
      </trkpt>
      <trkpt lat="48.39771" lon="2.64294">
        <ele>99</ele>
        <time>2023-06-20T14:17:26Z</time>
      </trkpt>
      <trkpt lat="48.39665" lon="2.64478">
        <ele>96</ele>
        <time>2023-06-20T14:21:02Z</time>
      </trkpt>
      <trkpt lat="48.39659" lon="2.64349">
        <ele>99</ele>
        <time>2023-06-20T14:22:56Z</time>
      </trkpt>
      <trkpt lat="48.39656" lon="2.6421">
        <ele>108</ele>
        <time>2023-06-20T14:25:00Z</time>
      </trkpt>
      <trkpt lat="48.39619" lon="2.64176">
        <ele>114</ele>
        <time>2023-06-20T14:25:57Z</time>
      </trkpt>
      <trkpt lat="48.39585" lon="2.64178">
        <ele>118</ele>
        <time>2023-06-20T14:26:43Z</time>
      </trkpt>
      <trkpt lat="48.39563" lon="2.64222">
        <ele>111</ele>
        <time>2023-06-20T14:27:32Z</time>
      </trkpt>
      <trkpt lat="48.39516" lon="2.64078">
        <ele>112</ele>
        <time>2023-06-20T14:29:54Z</time>
      </trkpt>
      <trkpt lat="48.39471" lon="2.64112">
        <ele>106</ele>
        <time>2023-06-20T14:31:01Z</time>
      </trkpt>
      <trkpt lat="48.3944" lon="2.64193">
        <ele>99</ele>
        <time>2023-06-20T14:32:24Z</time>
      </trkpt>
      <trkpt lat="48.39378" lon="2.64213">
        <ele>96</ele>
        <time>2023-06-20T14:33:48Z</time>
      </trkpt>
      <trkpt lat="48.39323" lon="2.64252">
        <ele>94</ele>
        <time>2023-06-20T14:35:10Z</time>
      </trkpt>
      <trkpt lat="48.393" lon="2.64299">
        <ele>95</ele>
        <time>2023-06-20T14:36:01Z</time>
      </trkpt>
      <trkpt lat="48.39259" lon="2.64489">
        <ele>90</ele>
        <time>2023-06-20T14:38:58Z</time>
      </trkpt>
      <trkpt lat="48.39223" lon="2.64728">
        <ele>86</ele>
        <time>2023-06-20T14:42:36Z</time>
      </trkpt>
      <trkpt lat="48.39194" lon="2.64909">
        <ele>85</ele>
        <time>2023-06-20T14:45:21Z</time>
      </trkpt>
      <trkpt lat="48.39177" lon="2.65068">
        <ele>85</ele>
        <time>2023-06-20T14:47:43Z</time>
      </trkpt>
      <trkpt lat="48.3904" lon="2.65049">
        <ele>101</ele>
        <time>2023-06-20T14:50:47Z</time>
      </trkpt>
      <trkpt lat="48.39008" lon="2.64953">
        <ele>104</ele>
        <time>2023-06-20T14:52:22Z</time>
      </trkpt>
      <trkpt lat="48.38872" lon="2.64917">
        <ele>101</ele>
        <time>2023-06-20T14:55:26Z</time>
      </trkpt>
      <trkpt lat="48.38687" lon="2.6505">
        <ele>97.3</ele>
      </trkpt>
      <trkpt lat="48.38515" lon="2.65176">
        <ele>127</ele>
        <time>2023-06-20T15:04:15Z</time>
      </trkpt>
      <trkpt lat="48.38345" lon="2.64905">
        <ele>125</ele>
        <time>2023-06-20T15:09:45Z</time>
      </trkpt>
      <trkpt lat="48.38286" lon="2.64799">
        <ele>125</ele>
        <time>2023-06-20T15:11:48Z</time>
      </trkpt>
      <trkpt lat="48.3823" lon="2.64756">
        <ele>125</ele>
        <time>2023-06-20T15:13:12Z</time>
      </trkpt>
      <trkpt lat="48.38218" lon="2.64722">
        <ele>124</ele>
        <time>2023-06-20T15:13:46Z</time>
      </trkpt>
      <trkpt lat="48.38193" lon="2.64711">
        <ele>122</ele>
        <time>2023-06-20T15:14:21Z</time>
      </trkpt>
      <trkpt lat="48.38179" lon="2.64689">
        <ele>121</ele>
        <time>2023-06-20T15:14:48Z</time>
      </trkpt>
      <trkpt lat="48.38156" lon="2.64627">
        <ele>120</ele>
        <time>2023-06-20T15:15:51Z</time>
      </trkpt>
      <trkpt lat="48.38154" lon="2.6457">
        <ele>121</ele>
        <time>2023-06-20T15:16:41Z</time>
      </trkpt>
      <trkpt lat="48.38157" lon="2.64493">
        <ele>121</ele>
        <time>2023-06-20T15:17:50Z</time>
      </trkpt>
      <trkpt lat="48.38187" lon="2.64361">
        <ele>120</ele>
        <time>2023-06-20T15:19:53Z</time>
      </trkpt>
      <trkpt lat="48.38177" lon="2.64315">
        <ele>119</ele>
        <time>2023-06-20T15:20:36Z</time>
      </trkpt>
      <trkpt lat="48.38185" lon="2.64246">
        <ele>121</ele>
        <time>2023-06-20T15:21:38Z</time>
      </trkpt>
      <trkpt lat="48.38202" lon="2.6414">
        <ele>122</ele>
        <time>2023-06-20T15:23:15Z</time>
      </trkpt>
      <trkpt lat="48.38192" lon="2.64073">
        <ele>121</ele>
        <time>2023-06-20T15:24:16Z</time>
      </trkpt>
      <trkpt lat="48.38172" lon="2.64058">
        <ele>119</ele>
        <time>2023-06-20T15:24:46Z</time>
      </trkpt>
      <trkpt lat="48.38143" lon="2.6408">
        <ele>116</ele>
        <time>2023-06-20T15:25:29Z</time>
      </trkpt>
      <trkpt lat="48.38195" lon="2.63782">
        <ele>129</ele>
        <time>2023-06-20T15:30:02Z</time>
      </trkpt>
      <trkpt lat="48.38228" lon="2.63585">
        <ele>132</ele>
        <time>2023-06-20T15:33:02Z</time>
      </trkpt>
      <trkpt lat="48.38325" lon="2.63522">
        <ele>134</ele>
        <time>2023-06-20T15:35:23Z</time>
      </trkpt>
      <trkpt lat="48.38359" lon="2.63409">
        <ele>134</ele>
        <time>2023-06-20T15:37:13Z</time>
      </trkpt>
      <trkpt lat="48.38575" lon="2.637">
        <ele>132</ele>
        <time>2023-06-20T15:43:40Z</time>
      </trkpt>
      <trkpt lat="48.39021" lon="2.63757">
        <ele>128</ele>
        <time>2023-06-20T15:53:37Z</time>
      </trkpt>
      <trkpt lat="48.38988" lon="2.64085">
        <ele>115</ele>
        <time>2023-06-20T15:58:31Z</time>
      </trkpt>
      <trkpt lat="48.39117" lon="2.64094">
        <ele>122</ele>
        <time>2023-06-20T16:01:23Z</time>
      </trkpt>
      <trkpt lat="48.39155" lon="2.64183">
        <ele>116</ele>
        <time>2023-06-20T16:02:57Z</time>
      </trkpt>
      <trkpt lat="48.39267" lon="2.64163">
        <ele>97</ele>
        <time>2023-06-20T16:05:28Z</time>
      </trkpt>
      <trkpt lat="48.39262" lon="2.63807">
        <ele>114</ele>
        <time>2023-06-20T16:10:43Z</time>
      </trkpt>
      <trkpt lat="48.39309" lon="2.63701">
        <ele>118</ele>
        <time>2023-06-20T16:12:36Z</time>
      </trkpt>
      <trkpt lat="48.39292" lon="2.63543">
        <ele>127</ele>
        <time>2023-06-20T16:14:58Z</time>
      </trkpt>
      <trkpt lat="48.39322" lon="2.63359">
        <ele>131</ele>
        <time>2023-06-20T16:17:46Z</time>
      </trkpt>
      <trkpt lat="48.39332" lon="2.6316">
        <ele>135</ele>
        <time>2023-06-20T16:20:43Z</time>
      </trkpt>
      <trkpt lat="48.39431" lon="2.63138">
        <ele>134</ele>
        <time>2023-06-20T16:22:56Z</time>
      </trkpt>
      <trkpt lat="48.39527" lon="2.63514">
        <ele>138</ele>
        <time>2023-06-20T16:28:53Z</time>
      </trkpt>
      <trkpt lat="48.39675" lon="2.63534">
        <ele>134</ele>
        <time>2023-06-20T16:32:12Z</time>
      </trkpt>
      <trkpt lat="48.39715" lon="2.63644">
        <ele>126</ele>
        <time>2023-06-20T16:34:03Z</time>
      </trkpt>
      <trkpt lat="48.39769" lon="2.63651">
        <ele>121</ele>
        <time>2023-06-20T16:35:15Z</time>
      </trkpt>
      <trkpt lat="48.39831" lon="2.6377">
        <ele>110</ele>
        <time>2023-06-20T16:37:29Z</time>
      </trkpt>
      <trkpt lat="48.39885" lon="2.63688">
        <ele>121</ele>
        <time>2023-06-20T16:39:11Z</time>
      </trkpt>
      <trkpt lat="48.3994" lon="2.6367">
        <ele>127</ele>
        <time>2023-06-20T16:40:26Z</time>
      </trkpt>
      <trkpt lat="48.39967" lon="2.63625">
        <ele>129</ele>
        <time>2023-06-20T16:41:20Z</time>
      </trkpt>
      <trkpt lat="48.40056" lon="2.63577">
        <ele>134</ele>
        <time>2023-06-20T16:43:26Z</time>
      </trkpt>
      <trkpt lat="48.40113" lon="2.63622">
        <ele>137</ele>
        <time>2023-06-20T16:44:52Z</time>
      </trkpt>
      <trkpt lat="48.40264" lon="2.63882">
        <ele>137</ele>
        <time>2023-06-20T16:49:58Z</time>
      </trkpt>
      <trkpt lat="48.4038" lon="2.63843">
        <ele>138</ele>
        <time>2023-06-20T16:52:37Z</time>
      </trkpt>
      <trkpt lat="48.40451" lon="2.63871">
        <ele>135</ele>
        <time>2023-06-20T16:54:15Z</time>
      </trkpt>
      <trkpt lat="48.40527" lon="2.63956">
        <ele>133</ele>
        <time>2023-06-20T16:56:21Z</time>
      </trkpt>
      <trkpt lat="48.40621" lon="2.64044">
        <ele>135</ele>
        <time>2023-06-20T16:58:49Z</time>
      </trkpt>
      <trkpt lat="48.40694" lon="2.64131">
        <ele>136</ele>
        <time>2023-06-20T17:00:53Z</time>
      </trkpt>
      <trkpt lat="48.40768" lon="2.64003">
        <ele>137</ele>
        <time>2023-06-20T17:03:23Z</time>
      </trkpt>
      <trkpt lat="48.40848" lon="2.6394">
        <ele>138</ele>
        <time>2023-06-20T17:05:24Z</time>
      </trkpt>
    </trkseg>
  </trk>
</gpx>